sensor_id;sensor_type;location;lat;lon;timestamp;P1;durP1;ratioP1;P2;durP2;ratioP2
73331;SDS011;61560;33.718;73.040;2022-08-19T00:00:35;18.23;;;11.63;;
73331;SDS011;61560;33.718;73.040;2022-08-19T00:03:04;21.50;;;12.68;;
73331;SDS011;61560;33.718;73.040;2022-08-19T00:05:34;20.23;;;12.45;;
73331;SDS011;61560;33.718;73.040;2022-08-19T00:08:01;19.58;;;12.70;;
73331;SDS011;61560;33.718;73.040;2022-08-19T00:10:28;20.50;;;12.82;;
73331;SDS011;61560;33.718;73.040;2022-08-19T00:12:55;18.48;;;11.98;;
73331;SDS011;61560;33.718;73.040;2022-08-19T00:15:22;21.63;;;12.23;;
73331;SDS011;61560;33.718;73.040;2022-08-19T00:17:49;20.88;;;11.85;;
73331;SDS011;61560;33.718;73.040;2022-08-19T00:20:17;18.27;;;11.93;;
73331;SDS011;61560;33.718;73.040;2022-08-19T00:22:45;19.45;;;11.80;;
73331;SDS011;61560;33.718;73.040;2022-08-19T00:25:14;17.45;;;11.93;;
73331;SDS011;61560;33.718;73.040;2022-08-19T00:27:41;20.98;;;12.82;;
73331;SDS011;61560;33.718;73.040;2022-08-19T00:30:07;18.17;;;12.20;;
73331;SDS011;61560;33.718;73.040;2022-08-19T00:32:36;17.83;;;10.98;;
73331;SDS011;61560;33.718;73.040;2022-08-19T00:35:04;18.15;;;11.68;;
73331;SDS011;61560;33.718;73.040;2022-08-19T00:37:31;19.00;;;11.82;;
73331;SDS011;61560;33.718;73.040;2022-08-19T00:39:58;20.38;;;12.18;;
73331;SDS011;61560;33.718;73.040;2022-08-19T00:42:25;21.90;;;12.15;;
73331;SDS011;61560;33.718;73.040;2022-08-19T00:44:53;22.60;;;12.48;;
73331;SDS011;61560;33.718;73.040;2022-08-19T00:47:20;21.08;;;12.32;;
73331;SDS011;61560;33.718;73.040;2022-08-19T00:49:48;22.52;;;12.38;;
73331;SDS011;61560;33.718;73.040;2022-08-19T00:52:29;20.48;;;12.50;;
73331;SDS011;61560;33.718;73.040;2022-08-19T00:55:04;21.05;;;12.95;;
73331;SDS011;61560;33.718;73.040;2022-08-19T00:57:37;22.98;;;13.20;;
73331;SDS011;61560;33.718;73.040;2022-08-19T01:00:07;25.83;;;13.07;;
73331;SDS011;61560;33.718;73.040;2022-08-19T01:02:37;22.20;;;12.85;;
73331;SDS011;61560;33.718;73.040;2022-08-19T01:05:06;23.48;;;13.38;;
73331;SDS011;61560;33.718;73.040;2022-08-19T01:07:37;19.90;;;12.60;;
73331;SDS011;61560;33.718;73.040;2022-08-19T01:10:07;19.55;;;12.52;;
73331;SDS011;61560;33.718;73.040;2022-08-19T01:12:38;18.67;;;11.82;;
73331;SDS011;61560;33.718;73.040;2022-08-19T01:15:11;19.48;;;12.90;;
73331;SDS011;61560;33.718;73.040;2022-08-19T01:17:43;19.83;;;12.70;;
73331;SDS011;61560;33.718;73.040;2022-08-19T01:20:15;21.08;;;13.23;;
73331;SDS011;61560;33.718;73.040;2022-08-19T01:22:46;20.30;;;12.98;;
73331;SDS011;61560;33.718;73.040;2022-08-19T01:25:17;20.35;;;12.82;;
73331;SDS011;61560;33.718;73.040;2022-08-19T01:27:47;21.77;;;12.60;;
73331;SDS011;61560;33.718;73.040;2022-08-19T01:30:16;23.80;;;12.63;;
73331;SDS011;61560;33.718;73.040;2022-08-19T01:32:45;21.10;;;12.27;;
73331;SDS011;61560;33.718;73.040;2022-08-19T01:35:13;22.30;;;14.05;;
73331;SDS011;61560;33.718;73.040;2022-08-19T01:37:42;23.40;;;15.70;;
73331;SDS011;61560;33.718;73.040;2022-08-19T01:40:22;19.50;;;12.73;;
73331;SDS011;61560;33.718;73.040;2022-08-19T01:42:52;20.23;;;12.68;;
73331;SDS011;61560;33.718;73.040;2022-08-19T01:45:20;22.02;;;12.20;;
73331;SDS011;61560;33.718;73.040;2022-08-19T01:47:49;17.20;;;11.68;;
73331;SDS011;61560;33.718;73.040;2022-08-19T01:50:15;21.52;;;12.57;;
73331;SDS011;61560;33.718;73.040;2022-08-19T01:52:43;19.08;;;12.25;;
73331;SDS011;61560;33.718;73.040;2022-08-19T01:55:11;19.83;;;12.57;;
73331;SDS011;61560;33.718;73.040;2022-08-19T01:57:41;19.88;;;12.25;;
73331;SDS011;61560;33.718;73.040;2022-08-19T02:00:16;21.27;;;12.40;;
73331;SDS011;61560;33.718;73.040;2022-08-19T02:02:46;16.38;;;11.20;;
73331;SDS011;61560;33.718;73.040;2022-08-19T02:05:13;19.23;;;13.02;;
73331;SDS011;61560;33.718;73.040;2022-08-19T02:08:23;17.40;;;11.00;;
73331;SDS011;61560;33.718;73.040;2022-08-19T02:19:07;22.33;;;13.23;;
73331;SDS011;61560;33.718;73.040;2022-08-19T02:34:43;20.27;;;14.15;;
73331;SDS011;61560;33.718;73.040;2022-08-19T02:38:44;18.77;;;14.38;;
73331;SDS011;61560;33.718;73.040;2022-08-19T02:42:48;24.15;;;15.45;;
73331;SDS011;61560;33.718;73.040;2022-08-19T02:53:59;23.80;;;15.07;;
73331;SDS011;61560;33.718;73.040;2022-08-19T02:57:41;22.35;;;15.00;;
73331;SDS011;61560;33.718;73.040;2022-08-19T03:09:10;20.48;;;14.98;;
73331;SDS011;61560;33.718;73.040;2022-08-19T03:12:59;19.98;;;14.18;;
73331;SDS011;61560;33.718;73.040;2022-08-19T03:20:56;16.38;;;12.55;;
73331;SDS011;61560;33.718;73.040;2022-08-19T03:32:21;18.10;;;12.20;;
73331;SDS011;61560;33.718;73.040;2022-08-19T03:36:15;16.48;;;12.02;;
73331;SDS011;61560;33.718;73.040;2022-08-19T03:40:02;20.48;;;13.10;;
73331;SDS011;61560;33.718;73.040;2022-08-19T03:43:51;21.65;;;13.95;;
73331;SDS011;61560;33.718;73.040;2022-08-19T03:54:31;33.83;;;18.40;;
73331;SDS011;61560;33.718;73.040;2022-08-19T03:58:06;23.33;;;17.75;;
73331;SDS011;61560;33.718;73.040;2022-08-19T04:01:39;22.67;;;15.85;;
73331;SDS011;61560;33.718;73.040;2022-08-19T04:05:46;21.83;;;16.88;;
73331;SDS011;61560;33.718;73.040;2022-08-19T04:13:23;21.55;;;16.15;;
73331;SDS011;61560;33.718;73.040;2022-08-19T04:20:58;24.27;;;18.90;;
73331;SDS011;61560;33.718;73.040;2022-08-19T04:24:35;16.45;;;13.73;;
73331;SDS011;61560;33.718;73.040;2022-08-19T04:28:17;12.57;;;11.02;;
73331;SDS011;61560;33.718;73.040;2022-08-19T04:35:51;16.33;;;11.80;;
73331;SDS011;61560;33.718;73.040;2022-08-19T04:39:37;13.93;;;10.95;;
73331;SDS011;61560;33.718;73.040;2022-08-19T04:43:16;11.02;;;9.90;;
73331;SDS011;61560;33.718;73.040;2022-08-19T04:46:41;13.48;;;9.45;;
73331;SDS011;61560;33.718;73.040;2022-08-19T04:50:44;10.63;;;9.52;;
73331;SDS011;61560;33.718;73.040;2022-08-19T04:58:29;8.93;;;7.97;;
73331;SDS011;61560;33.718;73.040;2022-08-19T05:04:40;7.93;;;6.30;;
73331;SDS011;61560;33.718;73.040;2022-08-19T05:07:54;5.38;;;4.88;;
73331;SDS011;61560;33.718;73.040;2022-08-19T05:11:54;5.57;;;5.07;;
73331;SDS011;61560;33.718;73.040;2022-08-19T05:19:35;5.40;;;4.90;;
73331;SDS011;61560;33.718;73.040;2022-08-19T05:23:04;7.18;;;4.70;;
73331;SDS011;61560;33.718;73.040;2022-08-19T05:26:04;5.13;;;4.60;;
73331;SDS011;61560;33.718;73.040;2022-08-19T05:29:28;6.85;;;4.57;;
73331;SDS011;61560;33.718;73.040;2022-08-19T05:32:39;6.20;;;4.68;;
73331;SDS011;61560;33.718;73.040;2022-08-19T05:36:17;5.05;;;4.50;;
73331;SDS011;61560;33.718;73.040;2022-08-19T05:39:48;4.88;;;4.30;;
73331;SDS011;61560;33.718;73.040;2022-08-19T05:51:04;7.43;;;5.10;;
73331;SDS011;61560;33.718;73.040;2022-08-19T05:54:50;5.07;;;4.57;;
73331;SDS011;61560;33.718;73.040;2022-08-19T06:02:03;7.00;;;4.38;;
73331;SDS011;61560;33.718;73.040;2022-08-19T06:13:21;10.23;;;4.97;;
73331;SDS011;61560;33.718;73.040;2022-08-19T06:21:11;5.80;;;5.10;;
73331;SDS011;61560;33.718;73.040;2022-08-19T06:24:05;5.85;;;5.13;;
73331;SDS011;61560;33.718;73.040;2022-08-19T06:26:56;5.72;;;4.38;;
73331;SDS011;61560;33.718;73.040;2022-08-19T06:30:40;9.18;;;4.65;;
73331;SDS011;61560;33.718;73.040;2022-08-19T06:38:28;6.78;;;4.80;;
73331;SDS011;61560;33.718;73.040;2022-08-19T06:41:55;6.03;;;5.22;;
73331;SDS011;61560;33.718;73.040;2022-08-19T06:44:57;7.65;;;5.22;;
73331;SDS011;61560;33.718;73.040;2022-08-19T06:51:57;7.55;;;5.40;;
73331;SDS011;61560;33.718;73.040;2022-08-19T06:55:35;8.85;;;5.80;;
73331;SDS011;61560;33.718;73.040;2022-08-19T06:59:19;9.63;;;6.00;;
73331;SDS011;61560;33.718;73.040;2022-08-19T07:02:00;9.65;;;6.28;;
73331;SDS011;61560;33.718;73.040;2022-08-19T07:04:49;10.05;;;6.32;;
73331;SDS011;61560;33.718;73.040;2022-08-19T07:07:33;10.32;;;6.85;;
73331;SDS011;61560;33.718;73.040;2022-08-19T07:10:09;8.23;;;6.50;;
73331;SDS011;61560;33.718;73.040;2022-08-19T07:13:50;8.63;;;5.88;;
73331;SDS011;61560;33.718;73.040;2022-08-19T07:25:11;8.20;;;6.20;;
73331;SDS011;61560;33.718;73.040;2022-08-19T07:27:58;13.25;;;7.72;;
73331;SDS011;61560;33.718;73.040;2022-08-19T07:30:36;9.90;;;6.88;;
73331;SDS011;61560;33.718;73.040;2022-08-19T07:34:14;11.23;;;6.93;;
73331;SDS011;61560;33.718;73.040;2022-08-19T07:36:54;10.88;;;7.20;;
73331;SDS011;61560;33.718;73.040;2022-08-19T07:47:03;13.33;;;8.07;;
73331;SDS011;61560;33.718;73.040;2022-08-19T07:49:46;11.35;;;8.18;;
73331;SDS011;61560;33.718;73.040;2022-08-19T07:56:26;11.50;;;7.95;;
73331;SDS011;61560;33.718;73.040;2022-08-19T08:11:48;10.45;;;7.65;;
73331;SDS011;61560;33.718;73.040;2022-08-19T08:19:32;10.88;;;7.97;;
73331;SDS011;61560;33.718;73.040;2022-08-19T08:22:45;10.93;;;8.32;;
73331;SDS011;61560;33.718;73.040;2022-08-19T08:26:39;11.25;;;8.13;;
73331;SDS011;61560;33.718;73.040;2022-08-19T08:30:22;13.05;;;7.78;;
73331;SDS011;61560;33.718;73.040;2022-08-19T08:34:02;11.45;;;8.13;;
73331;SDS011;61560;33.718;73.040;2022-08-19T08:37:51;12.57;;;7.63;;
73331;SDS011;61560;33.718;73.040;2022-08-19T08:45:14;11.63;;;7.50;;
73331;SDS011;61560;33.718;73.040;2022-08-19T08:51:29;10.00;;;7.68;;
73331;SDS011;61560;33.718;73.040;2022-08-19T08:54:02;9.82;;;7.68;;
73331;SDS011;61560;33.718;73.040;2022-08-19T08:56:32;10.00;;;7.10;;
73331;SDS011;61560;33.718;73.040;2022-08-19T08:59:03;12.73;;;7.15;;
73331;SDS011;61560;33.718;73.040;2022-08-19T09:01:37;10.63;;;6.68;;
73331;SDS011;61560;33.718;73.040;2022-08-19T09:04:06;10.13;;;6.65;;
73331;SDS011;61560;33.718;73.040;2022-08-19T09:06:51;12.57;;;6.80;;
73331;SDS011;61560;33.718;73.040;2022-08-19T09:09:41;8.18;;;6.65;;
73331;SDS011;61560;33.718;73.040;2022-08-19T09:12:14;10.90;;;6.90;;
73331;SDS011;61560;33.718;73.040;2022-08-19T09:14:58;9.13;;;6.22;;
73331;SDS011;61560;33.718;73.040;2022-08-19T09:17:32;13.18;;;6.80;;
73331;SDS011;61560;33.718;73.040;2022-08-19T09:20:04;8.20;;;6.32;;
73331;SDS011;61560;33.718;73.040;2022-08-19T09:22:55;8.27;;;6.15;;
73331;SDS011;61560;33.718;73.040;2022-08-19T09:25:24;7.25;;;5.60;;
73331;SDS011;61560;33.718;73.040;2022-08-19T09:27:52;8.63;;;5.18;;
73331;SDS011;61560;33.718;73.040;2022-08-19T09:30:27;8.75;;;5.10;;
73331;SDS011;61560;33.718;73.040;2022-08-19T09:32:56;9.73;;;5.63;;
73331;SDS011;61560;33.718;73.040;2022-08-19T09:35:26;9.93;;;5.35;;
73331;SDS011;61560;33.718;73.040;2022-08-19T09:37:54;9.10;;;5.50;;
73331;SDS011;61560;33.718;73.040;2022-08-19T09:40:22;6.28;;;5.03;;
73331;SDS011;61560;33.718;73.040;2022-08-19T09:42:50;5.57;;;4.70;;
73331;SDS011;61560;33.718;73.040;2022-08-19T09:45:18;6.35;;;4.47;;
73331;SDS011;61560;33.718;73.040;2022-08-19T09:47:48;6.82;;;4.75;;
73331;SDS011;61560;33.718;73.040;2022-08-19T09:50:16;6.57;;;4.63;;
73331;SDS011;61560;33.718;73.040;2022-08-19T09:52:44;10.57;;;4.78;;
73331;SDS011;61560;33.718;73.040;2022-08-19T09:55:11;7.88;;;4.82;;
73331;SDS011;61560;33.718;73.040;2022-08-19T09:57:39;7.90;;;5.35;;
73331;SDS011;61560;33.718;73.040;2022-08-19T10:00:06;5.00;;;4.40;;
73331;SDS011;61560;33.718;73.040;2022-08-19T10:02:35;7.07;;;4.85;;
73331;SDS011;61560;33.718;73.040;2022-08-19T10:05:02;6.53;;;5.00;;
73331;SDS011;61560;33.718;73.040;2022-08-19T10:07:47;6.07;;;4.78;;
73331;SDS011;61560;33.718;73.040;2022-08-19T10:10:14;7.38;;;5.00;;
73331;SDS011;61560;33.718;73.040;2022-08-19T10:12:41;5.25;;;4.63;;
73331;SDS011;61560;33.718;73.040;2022-08-19T10:15:12;8.63;;;4.93;;
73331;SDS011;61560;33.718;73.040;2022-08-19T10:17:38;7.63;;;5.43;;
73331;SDS011;61560;33.718;73.040;2022-08-19T10:20:05;7.28;;;4.43;;
73331;SDS011;61560;33.718;73.040;2022-08-19T10:22:32;6.93;;;4.78;;
73331;SDS011;61560;33.718;73.040;2022-08-19T10:25:01;7.40;;;4.85;;
73331;SDS011;61560;33.718;73.040;2022-08-19T10:27:28;8.30;;;4.97;;
73331;SDS011;61560;33.718;73.040;2022-08-19T10:29:54;8.23;;;4.68;;
73331;SDS011;61560;33.718;73.040;2022-08-19T10:32:21;13.85;;;5.20;;
73331;SDS011;61560;33.718;73.040;2022-08-19T10:34:50;6.50;;;4.78;;
73331;SDS011;61560;33.718;73.040;2022-08-19T10:37:17;7.47;;;5.32;;
73331;SDS011;61560;33.718;73.040;2022-08-19T10:39:45;7.25;;;4.85;;
73331;SDS011;61560;33.718;73.040;2022-08-19T10:42:13;7.07;;;5.30;;
73331;SDS011;61560;33.718;73.040;2022-08-19T10:44:44;8.68;;;5.28;;
73331;SDS011;61560;33.718;73.040;2022-08-19T10:47:12;7.80;;;4.70;;
73331;SDS011;61560;33.718;73.040;2022-08-19T10:49:38;6.53;;;4.57;;
73331;SDS011;61560;33.718;73.040;2022-08-19T10:52:25;7.88;;;4.97;;
73331;SDS011;61560;33.718;73.040;2022-08-19T10:55:01;8.57;;;5.30;;
73331;SDS011;61560;33.718;73.040;2022-08-19T10:57:49;8.32;;;5.35;;
73331;SDS011;61560;33.718;73.040;2022-08-19T11:00:17;7.72;;;5.10;;
73331;SDS011;61560;33.718;73.040;2022-08-19T11:02:46;5.82;;;4.47;;
73331;SDS011;61560;33.718;73.040;2022-08-19T11:05:14;6.55;;;4.32;;
73331;SDS011;61560;33.718;73.040;2022-08-19T11:07:42;7.18;;;5.05;;
73331;SDS011;61560;33.718;73.040;2022-08-19T11:10:11;6.28;;;4.95;;
73331;SDS011;61560;33.718;73.040;2022-08-19T11:12:40;7.38;;;4.80;;
73331;SDS011;61560;33.718;73.040;2022-08-19T11:15:07;9.40;;;5.35;;
73331;SDS011;61560;33.718;73.040;2022-08-19T11:17:37;6.97;;;4.95;;
73331;SDS011;61560;33.718;73.040;2022-08-19T11:20:12;8.82;;;5.18;;
73331;SDS011;61560;33.718;73.040;2022-08-19T11:25:08;7.28;;;5.18;;
73331;SDS011;61560;33.718;73.040;2022-08-19T11:27:40;6.90;;;5.03;;
73331;SDS011;61560;33.718;73.040;2022-08-19T11:30:11;7.95;;;5.38;;
73331;SDS011;61560;33.718;73.040;2022-08-19T11:32:39;6.38;;;5.57;;
73331;SDS011;61560;33.718;73.040;2022-08-19T11:35:07;7.93;;;5.47;;
73331;SDS011;61560;33.718;73.040;2022-08-19T11:37:34;8.45;;;5.00;;
73331;SDS011;61560;33.718;73.040;2022-08-19T11:40:03;8.95;;;4.93;;
73331;SDS011;61560;33.718;73.040;2022-08-19T11:42:31;11.70;;;4.80;;
73331;SDS011;61560;33.718;73.040;2022-08-19T11:45:16;5.72;;;4.50;;
73331;SDS011;61560;33.718;73.040;2022-08-19T11:47:42;7.53;;;5.25;;
73331;SDS011;61560;33.718;73.040;2022-08-19T11:50:09;6.13;;;4.60;;
73331;SDS011;61560;33.718;73.040;2022-08-19T11:52:36;6.10;;;4.65;;
73331;SDS011;61560;33.718;73.040;2022-08-19T11:55:03;6.40;;;4.43;;
73331;SDS011;61560;33.718;73.040;2022-08-19T11:57:30;6.93;;;4.25;;
73331;SDS011;61560;33.718;73.040;2022-08-19T11:59:57;6.25;;;4.20;;
73331;SDS011;61560;33.718;73.040;2022-08-19T12:02:24;5.10;;;4.30;;
73331;SDS011;61560;33.718;73.040;2022-08-19T12:04:51;11.90;;;4.93;;
73331;SDS011;61560;33.718;73.040;2022-08-19T12:07:17;7.70;;;5.10;;
73331;SDS011;61560;33.718;73.040;2022-08-19T12:09:44;7.97;;;5.38;;
73331;SDS011;61560;33.718;73.040;2022-08-19T12:12:11;9.13;;;4.78;;
73331;SDS011;61560;33.718;73.040;2022-08-19T12:14:39;6.50;;;4.85;;
73331;SDS011;61560;33.718;73.040;2022-08-19T12:17:05;8.88;;;4.93;;
73331;SDS011;61560;33.718;73.040;2022-08-19T12:19:35;7.18;;;4.97;;
73331;SDS011;61560;33.718;73.040;2022-08-19T12:22:02;7.13;;;4.15;;
73331;SDS011;61560;33.718;73.040;2022-08-19T12:24:32;8.35;;;4.28;;
73331;SDS011;61560;33.718;73.040;2022-08-19T12:26:59;9.63;;;4.53;;
73331;SDS011;61560;33.718;73.040;2022-08-19T12:29:27;8.13;;;4.13;;
73331;SDS011;61560;33.718;73.040;2022-08-19T12:31:55;5.15;;;4.30;;
73331;SDS011;61560;33.718;73.040;2022-08-19T12:34:31;9.50;;;4.38;;
73331;SDS011;61560;33.718;73.040;2022-08-19T12:37:00;5.85;;;4.25;;
73331;SDS011;61560;33.718;73.040;2022-08-19T12:39:28;5.93;;;4.32;;
73331;SDS011;61560;33.718;73.040;2022-08-19T12:41:56;6.00;;;4.40;;
73331;SDS011;61560;33.718;73.040;2022-08-19T12:44:23;9.30;;;4.82;;
73331;SDS011;61560;33.718;73.040;2022-08-19T12:46:50;6.53;;;4.38;;
73331;SDS011;61560;33.718;73.040;2022-08-19T12:49:16;5.82;;;4.53;;
73331;SDS011;61560;33.718;73.040;2022-08-19T12:51:43;6.72;;;4.82;;
73331;SDS011;61560;33.718;73.040;2022-08-19T12:54:09;5.95;;;4.50;;
73331;SDS011;61560;33.718;73.040;2022-08-19T12:56:36;6.50;;;4.80;;
73331;SDS011;61560;33.718;73.040;2022-08-19T12:59:03;5.78;;;4.80;;
73331;SDS011;61560;33.718;73.040;2022-08-19T13:01:30;6.43;;;4.78;;
73331;SDS011;61560;33.718;73.040;2022-08-19T13:03:58;6.68;;;5.22;;
73331;SDS011;61560;33.718;73.040;2022-08-19T13:06:25;6.25;;;4.78;;
73331;SDS011;61560;33.718;73.040;2022-08-19T13:08:53;6.28;;;4.97;;
73331;SDS011;61560;33.718;73.040;2022-08-19T13:11:21;9.77;;;4.88;;
73331;SDS011;61560;33.718;73.040;2022-08-19T13:13:50;8.10;;;5.45;;
73331;SDS011;61560;33.718;73.040;2022-08-19T13:16:18;8.23;;;5.75;;
73331;SDS011;61560;33.718;73.040;2022-08-19T13:18:46;12.07;;;5.80;;
73331;SDS011;61560;33.718;73.040;2022-08-19T13:21:13;9.57;;;5.88;;
73331;SDS011;61560;33.718;73.040;2022-08-19T13:23:40;7.82;;;5.68;;
73331;SDS011;61560;33.718;73.040;2022-08-19T13:26:08;12.02;;;5.53;;
73331;SDS011;61560;33.718;73.040;2022-08-19T13:28:37;14.13;;;6.38;;
73331;SDS011;61560;33.718;73.040;2022-08-19T13:31:23;8.30;;;5.97;;
73331;SDS011;61560;33.718;73.040;2022-08-19T13:34:09;11.23;;;5.60;;
73331;SDS011;61560;33.718;73.040;2022-08-19T13:36:37;6.50;;;5.40;;
73331;SDS011;61560;33.718;73.040;2022-08-19T13:39:05;11.10;;;5.75;;
73331;SDS011;61560;33.718;73.040;2022-08-19T13:44:03;8.98;;;5.93;;
73331;SDS011;61560;33.718;73.040;2022-08-19T13:46:32;6.55;;;5.30;;
73331;SDS011;61560;33.718;73.040;2022-08-19T13:48:58;10.70;;;5.82;;
73331;SDS011;61560;33.718;73.040;2022-08-19T13:51:25;7.50;;;5.47;;
73331;SDS011;61560;33.718;73.040;2022-08-19T13:53:52;8.00;;;5.28;;
73331;SDS011;61560;33.718;73.040;2022-08-19T13:56:19;10.20;;;5.95;;
73331;SDS011;61560;33.718;73.040;2022-08-19T13:58:45;11.07;;;6.25;;
73331;SDS011;61560;33.718;73.040;2022-08-19T14:01:12;10.32;;;6.10;;
73331;SDS011;61560;33.718;73.040;2022-08-19T14:03:46;9.23;;;6.28;;
73331;SDS011;61560;33.718;73.040;2022-08-19T14:06:13;10.30;;;6.32;;
73331;SDS011;61560;33.718;73.040;2022-08-19T14:08:40;12.85;;;6.85;;
73331;SDS011;61560;33.718;73.040;2022-08-19T14:11:07;11.32;;;7.18;;
73331;SDS011;61560;33.718;73.040;2022-08-19T14:13:34;10.68;;;6.53;;
73331;SDS011;61560;33.718;73.040;2022-08-19T14:16:01;8.98;;;6.53;;
73331;SDS011;61560;33.718;73.040;2022-08-19T14:18:33;12.23;;;6.18;;
73331;SDS011;61560;33.718;73.040;2022-08-19T14:20:59;12.38;;;6.65;;
73331;SDS011;61560;33.718;73.040;2022-08-19T14:23:26;10.10;;;6.75;;
73331;SDS011;61560;33.718;73.040;2022-08-19T14:25:53;11.75;;;6.63;;
73331;SDS011;61560;33.718;73.040;2022-08-19T14:28:21;9.63;;;6.18;;
73331;SDS011;61560;33.718;73.040;2022-08-19T14:30:48;14.95;;;7.30;;
73331;SDS011;61560;33.718;73.040;2022-08-19T14:33:15;17.35;;;8.55;;
73331;SDS011;61560;33.718;73.040;2022-08-19T14:35:41;19.92;;;9.05;;
73331;SDS011;61560;33.718;73.040;2022-08-19T14:38:14;14.52;;;8.00;;
73331;SDS011;61560;33.718;73.040;2022-08-19T14:40:43;15.18;;;7.75;;
73331;SDS011;61560;33.718;73.040;2022-08-19T14:43:10;11.68;;;8.60;;
73331;SDS011;61560;33.718;73.040;2022-08-19T14:45:38;30.10;;;20.98;;
73331;SDS011;61560;33.718;73.040;2022-08-19T14:48:05;19.15;;;13.18;;
73331;SDS011;61560;33.718;73.040;2022-08-19T14:50:33;17.27;;;10.90;;
73331;SDS011;61560;33.718;73.040;2022-08-19T14:53:06;16.40;;;9.55;;
73331;SDS011;61560;33.718;73.040;2022-08-19T14:55:34;12.98;;;8.85;;
73331;SDS011;61560;33.718;73.040;2022-08-19T14:58:01;14.93;;;8.55;;
73331;SDS011;61560;33.718;73.040;2022-08-19T15:00:28;11.77;;;8.20;;
73331;SDS011;61560;33.718;73.040;2022-08-19T15:02:55;13.65;;;8.10;;
73331;SDS011;61560;33.718;73.040;2022-08-19T15:05:22;13.52;;;7.75;;
73331;SDS011;61560;33.718;73.040;2022-08-19T15:07:49;13.98;;;8.50;;
73331;SDS011;61560;33.718;73.040;2022-08-19T15:10:15;17.13;;;7.70;;
73331;SDS011;61560;33.718;73.040;2022-08-19T15:12:42;12.32;;;7.72;;
73331;SDS011;61560;33.718;73.040;2022-08-19T15:15:10;14.65;;;7.65;;
73331;SDS011;61560;33.718;73.040;2022-08-19T15:17:39;10.68;;;7.72;;
73331;SDS011;61560;33.718;73.040;2022-08-19T15:20:07;10.90;;;7.50;;
73331;SDS011;61560;33.718;73.040;2022-08-19T15:22:35;11.73;;;7.53;;
73331;SDS011;61560;33.718;73.040;2022-08-19T15:25:03;13.25;;;7.10;;
73331;SDS011;61560;33.718;73.040;2022-08-19T15:27:30;12.15;;;7.40;;
73331;SDS011;61560;33.718;73.040;2022-08-19T15:29:57;12.07;;;7.82;;
73331;SDS011;61560;33.718;73.040;2022-08-19T15:32:24;14.15;;;7.65;;
73331;SDS011;61560;33.718;73.040;2022-08-19T15:34:52;11.10;;;7.72;;
73331;SDS011;61560;33.718;73.040;2022-08-19T15:37:19;12.63;;;8.07;;
73331;SDS011;61560;33.718;73.040;2022-08-19T15:39:50;15.77;;;8.33;;
73331;SDS011;61560;33.718;73.040;2022-08-19T15:42:16;13.50;;;7.78;;
73331;SDS011;61560;33.718;73.040;2022-08-19T15:44:44;11.18;;;7.57;;
73331;SDS011;61560;33.718;73.040;2022-08-19T15:47:11;13.07;;;8.07;;
73331;SDS011;61560;33.718;73.040;2022-08-19T15:49:39;12.93;;;8.60;;
73331;SDS011;61560;33.718;73.040;2022-08-19T15:52:06;9.77;;;7.00;;
73331;SDS011;61560;33.718;73.040;2022-08-19T15:54:32;10.27;;;7.60;;
73331;SDS011;61560;33.718;73.040;2022-08-19T15:56:59;14.20;;;7.70;;
73331;SDS011;61560;33.718;73.040;2022-08-19T16:00:04;15.57;;;7.13;;
73331;SDS011;61560;33.718;73.040;2022-08-19T16:02:49;9.45;;;7.22;;
73331;SDS011;61560;33.718;73.040;2022-08-19T16:05:35;12.10;;;8.18;;
73331;SDS011;61560;33.718;73.040;2022-08-19T16:08:20;13.68;;;7.32;;
73331;SDS011;61560;33.718;73.040;2022-08-19T16:10:47;12.43;;;8.23;;
73331;SDS011;61560;33.718;73.040;2022-08-19T16:13:14;13.90;;;9.25;;
73331;SDS011;61560;33.718;73.040;2022-08-19T16:15:40;20.15;;;10.98;;
73331;SDS011;61560;33.718;73.040;2022-08-19T16:18:10;20.55;;;11.23;;
73331;SDS011;61560;33.718;73.040;2022-08-19T16:20:37;18.58;;;10.80;;
73331;SDS011;61560;33.718;73.040;2022-08-19T16:23:04;19.95;;;10.68;;
73331;SDS011;61560;33.718;73.040;2022-08-19T16:25:30;14.40;;;10.15;;
73331;SDS011;61560;33.718;73.040;2022-08-19T16:27:57;17.48;;;10.60;;
73331;SDS011;61560;33.718;73.040;2022-08-19T16:30:24;18.80;;;10.90;;
73331;SDS011;61560;33.718;73.040;2022-08-19T16:32:52;16.23;;;10.38;;
73331;SDS011;61560;33.718;73.040;2022-08-19T16:35:18;18.00;;;10.27;;
73331;SDS011;61560;33.718;73.040;2022-08-19T16:37:45;17.88;;;10.80;;
73331;SDS011;61560;33.718;73.040;2022-08-19T16:40:13;16.27;;;11.48;;
73331;SDS011;61560;33.718;73.040;2022-08-19T16:42:40;19.15;;;11.60;;
73331;SDS011;61560;33.718;73.040;2022-08-19T16:45:07;18.73;;;11.50;;
73331;SDS011;61560;33.718;73.040;2022-08-19T16:47:34;15.90;;;9.93;;
73331;SDS011;61560;33.718;73.040;2022-08-19T16:50:01;16.90;;;10.13;;
73331;SDS011;61560;33.718;73.040;2022-08-19T16:52:32;14.30;;;10.15;;
73331;SDS011;61560;33.718;73.040;2022-08-19T16:55:01;15.38;;;10.23;;
73331;SDS011;61560;33.718;73.040;2022-08-19T16:57:28;20.27;;;11.38;;
73331;SDS011;61560;33.718;73.040;2022-08-19T16:59:56;18.38;;;11.18;;
73331;SDS011;61560;33.718;73.040;2022-08-19T17:02:23;18.70;;;11.50;;
73331;SDS011;61560;33.718;73.040;2022-08-19T17:04:50;17.30;;;11.18;;
73331;SDS011;61560;33.718;73.040;2022-08-19T17:07:17;19.30;;;12.63;;
73331;SDS011;61560;33.718;73.040;2022-08-19T17:09:44;19.25;;;11.45;;
73331;SDS011;61560;33.718;73.040;2022-08-19T17:12:11;17.33;;;12.18;;
73331;SDS011;61560;33.718;73.040;2022-08-19T17:14:37;19.98;;;12.48;;
73331;SDS011;61560;33.718;73.040;2022-08-19T17:17:04;20.15;;;12.45;;
73331;SDS011;61560;33.718;73.040;2022-08-19T17:19:31;20.15;;;13.15;;
73331;SDS011;61560;33.718;73.040;2022-08-19T17:21:57;17.73;;;13.50;;
73331;SDS011;61560;33.718;73.040;2022-08-19T17:24:24;20.25;;;13.90;;
73331;SDS011;61560;33.718;73.040;2022-08-19T17:26:51;19.95;;;13.50;;
73331;SDS011;61560;33.718;73.040;2022-08-19T17:29:17;20.75;;;13.52;;
73331;SDS011;61560;33.718;73.040;2022-08-19T17:31:44;17.95;;;13.18;;
73331;SDS011;61560;33.718;73.040;2022-08-19T17:34:10;18.52;;;12.80;;
73331;SDS011;61560;33.718;73.040;2022-08-19T17:36:37;21.70;;;14.98;;
73331;SDS011;61560;33.718;73.040;2022-08-19T17:39:04;24.35;;;14.43;;
73331;SDS011;61560;33.718;73.040;2022-08-19T17:41:31;21.75;;;14.27;;
73331;SDS011;61560;33.718;73.040;2022-08-19T17:44:01;20.42;;;13.13;;
73331;SDS011;61560;33.718;73.040;2022-08-19T17:46:29;16.38;;;11.95;;
73331;SDS011;61560;33.718;73.040;2022-08-19T17:48:55;16.75;;;11.55;;
73331;SDS011;61560;33.718;73.040;2022-08-19T17:51:37;20.95;;;12.40;;
73331;SDS011;61560;33.718;73.040;2022-08-19T17:54:07;17.27;;;12.18;;
73331;SDS011;61560;33.718;73.040;2022-08-19T17:56:36;18.73;;;10.73;;
73331;SDS011;61560;33.718;73.040;2022-08-19T17:59:04;17.95;;;11.95;;
73331;SDS011;61560;33.718;73.040;2022-08-19T18:01:31;15.48;;;11.73;;
73331;SDS011;61560;33.718;73.040;2022-08-19T18:03:59;18.23;;;11.98;;
73331;SDS011;61560;33.718;73.040;2022-08-19T18:06:29;16.27;;;11.80;;
73331;SDS011;61560;33.718;73.040;2022-08-19T18:08:55;16.45;;;11.60;;
73331;SDS011;61560;33.718;73.040;2022-08-19T18:11:22;14.38;;;11.10;;
73331;SDS011;61560;33.718;73.040;2022-08-19T18:13:49;21.38;;;11.85;;
73331;SDS011;61560;33.718;73.040;2022-08-19T18:16:15;16.98;;;11.52;;
73331;SDS011;61560;33.718;73.040;2022-08-19T18:18:43;15.13;;;10.95;;